Time;durP1;ratioP1;P1;durP2;ratioP2;P2;SDS_P1;SDS_P2;PMS_P1;PMS_P2;Temp;Humidity;BMP_temperature;BMP_pressure;BME280_temperature;BME280_humidity;BME280_pressure;Samples;Min_cycle;Max_cycle;Signal;HPM_P1;HPM_P2
2022/11/02 00:00:48;;;;;;;;;;;17.30;72.10;;;;;;4949285;29;19937;-82
2022/11/02 00:03:13;;;;;;;;;;;17.30;72.10;;;;;;4933606;29;19923;-83
2022/11/02 00:05:39;;;;;;;;;;;17.30;72.10;;;;;;4932011;29;20383;-81
2022/11/02 00:08:05;;;;;;;;;;;17.30;72.10;;;;;;4948338;29;19938;-82
2022/11/02 00:10:30;;;;;;;;;;;17.30;72.10;;;;;;4950986;29;19915;-82
2022/11/02 00:12:56;;;;;;;;;;;17.30;72.10;;;;;;4951131;28;19929;-81
2022/11/02 00:15:24;;;;;;;;;;;17.30;72.10;;;;;;4948527;28;20005;-80
2022/11/02 00:17:52;;;;;;;;;;;17.30;72.10;;;;;;4950004;28;20062;-82
2022/11/02 00:20:18;;;;;;;;;;;17.30;72.10;;;;;;4944521;29;19914;-82
2022/11/02 00:22:44;;;;;;;;;;;17.30;72.20;;;;;;4919960;29;20013;-83
2022/11/02 00:25:12;;;;;;;;;;;17.30;72.10;;;;;;4952184;29;19914;-81
2022/11/02 00:27:38;;;;;;;;;;;17.30;72.10;;;;;;4948118;28;19910;-81
2022/11/02 00:30:04;;;;;;;;;;;17.30;72.10;;;;;;4951334;29;19974;-82
2022/11/02 00:32:30;;;;;;;;;;;17.30;72.10;;;;;;4950862;28;19922;-81
2022/11/02 00:34:55;;;;;;;;;;;17.30;72.20;;;;;;4946480;28;19918;-81
2022/11/02 00:37:21;;;;;;;;;;;17.30;72.10;;;;;;4945108;29;19964;-81
2022/11/02 00:39:47;;;;;;;;;;;17.20;72.10;;;;;;4949053;28;19953;-81
2022/11/02 00:42:12;;;;;;;;;;;17.30;72.10;;;;;;4931578;29;19918;-81
2022/11/02 00:44:38;;;;;;;;;;;17.30;72.20;;;;;;4935836;29;21176;-81
2022/11/02 00:47:04;;;;;;;;;;;17.30;72.20;;;;;;4948421;29;19986;-82
2022/11/02 00:49:30;;;;;;;;;;;17.20;72.10;;;;;;4934929;29;20001;-82
2022/11/02 00:51:56;;;;;;;;;;;17.20;72.10;;;;;;4934499;29;20304;-81
2022/11/02 00:54:22;;;;;;;;;;;17.20;72.10;;;;;;4947564;28;19925;-81
2022/11/02 00:56:51;;;;;;;;;;;17.20;72.10;;;;;;4950705;29;19977;-81
2022/11/02 00:59:17;;;;;;;;;;;17.20;72.10;;;;;;4936346;29;19923;-81
2022/11/02 01:01:48;;;;;;;;;;;17.20;72.10;;;;;;4934456;29;19961;-82
2022/11/02 01:04:14;;;;;;;;;;;17.20;72.10;;;;;;4934140;29;20391;-82
2022/11/02 01:06:40;;;;;;;;;;;17.20;72.10;;;;;;4947507;29;19925;-82
2022/11/02 01:09:06;;;;;;;;;;;17.20;72.20;;;;;;4946884;29;19921;-81
2022/11/02 01:11:31;;;;;;;;;;;17.20;72.20;;;;;;4918599;29;20288;-82
2022/11/02 01:13:57;;;;;;;;;;;17.20;72.20;;;;;;4948512;28;19926;-82
2022/11/02 01:16:23;;;;;;;;;;;17.20;72.20;;;;;;4947174;29;19915;-83
2022/11/02 01:18:52;;;;;;;;;;;17.20;72.20;;;;;;4919812;29;19914;-81
2022/11/02 01:21:18;;;;;;;;;;;17.20;72.20;;;;;;4951134;28;19914;-83
2022/11/02 01:23:44;;;;;;;;;;;17.10;72.10;;;;;;4946966;28;19919;-81
2022/11/02 01:26:10;;;;;;;;;;;17.20;72.20;;;;;;4950974;29;19918;-81
2022/11/02 01:28:36;;;;;;;;;;;17.10;72.20;;;;;;4948868;29;19974;-81
2022/11/02 01:31:02;;;;;;;;;;;17.10;72.10;;;;;;4953291;28;20568;-81
2022/11/02 01:33:28;;;;;;;;;;;17.10;72.10;;;;;;4937195;29;19931;-81
2022/11/02 01:35:53;;;;;;;;;;;17.10;72.10;;;;;;4920969;29;19927;-82
2022/11/02 01:38:20;;;;;;;;;;;17.10;72.20;;;;;;4934337;29;19962;-82
2022/11/02 01:40:46;;;;;;;;;;;17.10;72.20;;;;;;4934956;29;19961;-82
2022/11/02 01:43:18;;;;;;;;;;;17.10;72.20;;;;;;4936427;29;19954;-82
2022/11/02 01:45:44;;;;;;;;;;;17.10;72.20;;;;;;4952265;28;19918;-81
2022/11/02 01:48:09;;;;;;;;;;;17.10;72.20;;;;;;4922010;29;19924;-82
2022/11/02 01:50:35;;;;;;;;;;;17.00;72.10;;;;;;4953750;29;19970;-83
2022/11/02 01:53:02;;;;;;;;;;;17.00;72.20;;;;;;4948912;28;19922;-82
2022/11/02 01:55:30;;;;;;;;;;;17.00;72.10;;;;;;4953084;29;20021;-82
2022/11/02 01:58:00;;;;;;;;;;;17.00;72.20;;;;;;4953212;28;19923;-82
2022/11/02 02:00:26;;;;;;;;;;;17.00;72.20;;;;;;4949884;28;19914;-81
2022/11/02 02:03:08;;;;;;;;;;;17.00;72.10;;;;;;4950428;29;19937;-84
2022/11/02 02:05:38;;;;;;;;;;;17.00;72.10;;;;;;4965993;28;19918;-83
2022/11/02 02:08:06;;;;;;;;;;;17.00;72.10;;;;;;4953111;28;19929;-83
2022/11/02 02:10:33;;;;;;;;;;;17.00;72.10;;;;;;4947863;28;20410;-82
2022/11/02 02:13:04;;;;;;;;;;;17.00;72.10;;;;;;4947273;29;20310;-83
2022/11/02 02:15:50;;;;;;;;;;;17.00;72.10;;;;;;4947136;28;19914;-86
2022/11/02 02:18:23;;;;;;;;;;;16.90;72.30;;;;;;4930590;29;19981;-83
2022/11/02 02:21:00;;;;;;;;;;;16.90;72.00;;;;;;4950883;28;20364;-83
2022/11/02 02:23:26;;;;;;;;;;;16.90;72.00;;;;;;4954314;29;19968;-81
2022/11/02 02:25:52;;;;;;;;;;;16.90;72.00;;;;;;4951930;28;20360;-83
2022/11/02 02:28:18;;;;;;;;;;;16.90;72.00;;;;;;4949329;28;19921;-82
2022/11/02 02:30:55;;;;;;;;;;;16.80;71.90;;;;;;4952066;28;19918;-83
2022/11/02 02:33:34;;;;;;;;;;;16.90;72.00;;;;;;4946881;28;19929;-82
2022/11/02 02:36:05;;;;;;;;;;;16.80;72.00;;;;;;4966984;28;20315;-83
2022/11/02 02:38:37;;;;;;;;;;;16.80;71.90;;;;;;4950943;28;19981;-83
2022/11/02 02:41:06;;;;;;;;;;;16.80;72.00;;;;;;4951136;28;19915;-83
2022/11/02 02:43:37;;;;;;;;;;;16.80;71.90;;;;;;4950203;29;20371;-83
2022/11/02 02:46:15;;;;;;;;;;;16.80;72.00;;;;;;4937484;29;19957;-83
2022/11/02 02:48:41;;;;;;;;;;;16.80;72.00;;;;;;4965957;28;19966;-82
2022/11/02 02:51:10;;;;;;;;;;;16.70;71.90;;;;;;4952070;28;19918;-84
2022/11/02 02:53:42;;;;;;;;;;;16.80;72.00;;;;;;4950721;28;20029;-83
2022/11/02 02:56:09;;;;;;;;;;;16.70;71.90;;;;;;4946685;29;19965;-83
2022/11/02 02:58:37;;;;;;;;;;;16.70;71.90;;;;;;4948226;29;19914;-83
2022/11/02 03:01:03;;;;;;;;;;;16.70;71.90;;;;;;4950824;29;20288;-83
2022/11/02 03:03:30;;;;;;;;;;;16.70;71.90;;;;;;4934289;29;19914;-83
2022/11/02 03:06:08;;;;;;;;;;;16.60;71.90;;;;;;4948619;29;19973;-85
2022/11/02 03:08:37;;;;;;;;;;;16.70;71.90;;;;;;4949597;28;20009;-82
2022/11/02 03:11:13;;;;;;;;;;;16.70;71.90;;;;;;4946569;29;20013;-82
2022/11/02 03:13:46;;;;;;;;;;;16.60;71.90;;;;;;4950320;28;20013;-83
2022/11/02 03:16:31;;;;;;;;;;;16.60;71.90;;;;;;4958762;28;19922;-82
2022/11/02 03:19:05;;;;;;;;;;;16.60;71.90;;;;;;4950228;28;20050;-83
2022/11/02 03:21:36;;;;;;;;;;;16.50;71.90;;;;;;4934570;29;19914;-83
2022/11/02 03:24:02;;;;;;;;;;;16.50;71.90;;;;;;4932672;29;19922;-84
2022/11/02 03:26:38;;;;;;;;;;;16.50;71.90;;;;;;4949529;28;20268;-83
2022/11/02 03:29:07;;;;;;;;;;;16.50;71.90;;;;;;4941012;29;19922;-83
2022/11/02 03:32:06;;;;;;;;;;;16.40;71.90;;;;;;4951593;29;20100;-82
2022/11/02 03:34:48;;;;;;;;;;;16.40;71.90;;;;;;4944849;28;20287;-84
2022/11/02 03:37:21;;;;;;;;;;;16.40;71.90;;;;;;4947371;29;19922;-81
2022/11/02 03:39:49;;;;;;;;;;;16.40;71.90;;;;;;4944544;28;20385;-82
2022/11/02 03:42:17;;;;;;;;;;;16.40;72.60;;;;;;4952381;28;19914;-82
2022/11/02 03:44:43;;;;;;;;;;;16.40;72.00;;;;;;4948137;28;20047;-83
2022/11/02 03:47:11;;;;;;;;;;;16.40;72.00;;;;;;4946040;29;19922;-82
2022/11/02 03:49:40;;;;;;;;;;;16.30;71.90;;;;;;4950886;29;19915;-81
2022/11/02 03:52:09;;;;;;;;;;;16.30;72.00;;;;;;4950841;28;19918;-82
2022/11/02 03:54:37;;;;;;;;;;;16.30;71.90;;;;;;4948171;29;19922;-83
2022/11/02 03:57:06;;;;;;;;;;;16.30;72.00;;;;;;4935107;29;19953;-83
2022/11/02 03:59:32;;;;;;;;;;;16.30;72.00;;;;;;4938860;29;19937;-83
2022/11/02 04:01:59;;;;;;;;;;;16.30;72.60;;;;;;4932251;29;19914;-82
2022/11/02 04:04:25;;;;;;;;;;;16.20;71.90;;;;;;4949565;28;19922;-84
2022/11/02 04:06:51;;;;;;;;;;;16.30;72.00;;;;;;4934171;29;19915;-82
2022/11/02 04:09:17;;;;;;;;;;;16.20;71.90;;;;;;4937421;29;20326;-82
2022/11/02 04:14:38;;;;;;;;;;;16.20;71.90;;;;;;4947204;29;19926;-82
2022/11/02 04:19:55;;;;;;;;;;;16.20;72.00;;;;;;4949241;28;19919;-83
2022/11/02 04:25:19;;;;;;;;;;;16.10;72.00;;;;;;4948779;28;19914;-81
2022/11/02 04:28:05;;;;;;;;;;;16.10;72.00;;;;;;4948537;29;19922;-82
2022/11/02 04:30:30;;;;;;;;;;;16.10;72.00;;;;;;4946482;29;20488;-82
2022/11/02 04:35:49;;;;;;;;;;;16.10;72.00;;;;;;4950023;28;19926;-82
2022/11/02 04:43:47;;;;;;;;;;;16.00;71.90;;;;;;4939146;29;19925;-83
2022/11/02 04:46:15;;;;;;;;;;;16.00;71.90;;;;;;4945332;28;19918;-82
2022/11/02 04:48:41;;;;;;;;;;;16.00;71.90;;;;;;4952853;29;19914;-83
2022/11/02 04:51:07;;;;;;;;;;;16.00;72.00;;;;;;4934106;29;20271;-82
2022/11/02 04:53:34;;;;;;;;;;;16.00;71.90;;;;;;4932606;29;19935;-82
2022/11/02 04:56:01;;;;;;;;;;;16.00;71.90;;;;;;4950491;28;19923;-82
2022/11/02 04:58:27;;;;;;;;;;;16.00;71.90;;;;;;4939132;29;19956;-82
2022/11/02 05:00:52;;;;;;;;;;;15.90;71.90;;;;;;4937984;29;20348;-83
2022/11/02 05:03:18;;;;;;;;;;;15.90;71.90;;;;;;4955197;28;19966;-84
2022/11/02 05:05:44;;;;;;;;;;;15.90;71.90;;;;;;4938614;29;19923;-82
2022/11/02 05:08:10;;;;;;;;;;;15.90;71.90;;;;;;4937433;28;19919;-83
2022/11/02 05:10:36;;;;;;;;;;;15.90;71.90;;;;;;4932202;29;20431;-81
2022/11/02 05:13:02;;;;;;;;;;;15.90;72.50;;;;;;4953381;29;19930;-82
2022/11/02 05:15:31;;;;;;;;;;;15.90;71.90;;;;;;4952602;28;19921;-82
2022/11/02 05:17:58;;;;;;;;;;;15.90;71.90;;;;;;4935567;29;19930;-82
2022/11/02 05:20:26;;;;;;;;;;;15.90;71.90;;;;;;4952540;29;19926;-82
2022/11/02 05:22:52;;;;;;;;;;;15.90;71.90;;;;;;4950452;28;19922;-80
2022/11/02 05:25:20;;;;;;;;;;;15.90;72.60;;;;;;4946777;29;19919;-81
2022/11/02 05:27:45;;;;;;;;;;;15.90;71.90;;;;;;4935541;29;19922;-81
2022/11/02 05:30:12;;;;;;;;;;;15.90;71.90;;;;;;4952143;28;19927;-80
2022/11/02 05:32:37;;;;;;;;;;;15.80;71.90;;;;;;4947230;29;19980;-83
2022/11/02 05:35:03;;;;;;;;;;;15.80;71.90;;;;;;4937509;29;19925;-80
2022/11/02 05:37:29;;;;;;;;;;;15.80;71.90;;;;;;4951323;28;19927;-82
2022/11/02 05:39:57;;;;;;;;;;;15.90;72.00;;;;;;4948886;28;19926;-82
2022/11/02 05:42:22;;;;;;;;;;;15.80;71.90;;;;;;4953537;28;19914;-83
2022/11/02 05:44:48;;;;;;;;;;;15.80;71.90;;;;;;4938703;29;20370;-86
2022/11/02 05:47:14;;;;;;;;;;;15.80;71.90;;;;;;4940210;28;19927;-83
2022/11/02 05:49:40;;;;;;;;;;;15.80;71.90;;;;;;4953502;29;19915;-82
2022/11/02 05:52:05;;;;;;;;;;;15.80;71.90;;;;;;4922075;29;20716;-83
2022/11/02 05:54:31;;;;;;;;;;;15.80;71.90;;;;;;4930069;29;19922;-81
2022/11/02 05:56:56;;;;;;;;;;;15.80;71.90;;;;;;4937617;29;19979;-80
2022/11/02 05:59:22;;;;;;;;;;;15.80;72.00;;;;;;4943360;29;20392;-81
2022/11/02 06:01:48;;;;;;;;;;;15.80;71.90;;;;;;4934409;29;19923;-81
2022/11/02 06:04:14;;;;;;;;;;;15.80;72.00;;;;;;4936858;29;19926;-81
2022/11/02 06:06:39;;;;;;;;;;;15.80;71.90;;;;;;4953131;28;19997;-81
2022/11/02 06:09:05;;;;;;;;;;;15.80;71.90;;;;;;4936034;29;19944;-82
2022/11/02 06:11:31;;;;;;;;;;;15.80;71.90;;;;;;4953002;28;19914;-81
2022/11/02 06:13:56;;;;;;;;;;;15.80;71.90;;;;;;4927535;28;19927;-81
2022/11/02 06:16:22;;;;;;;;;;;15.80;71.90;;;;;;4956887;28;20005;-81
2022/11/02 06:18:48;;;;;;;;;;;15.80;71.90;;;;;;4950643;29;20351;-83
2022/11/02 06:21:14;;;;;;;;;;;15.80;71.90;;;;;;4933286;29;19933;-80
2022/11/02 06:23:41;;;;;;;;;;;15.80;71.90;;;;;;4951229;28;19914;-81
2022/11/02 06:26:08;;;;;;;;;;;15.80;71.90;;;;;;4951642;28;19914;-80
2022/11/02 06:28:33;;;;;;;;;;;15.80;71.90;;;;;;4934974;29;20450;-81
2022/11/02 06:31:00;;;;;;;;;;;15.80;71.90;;;;;;4933396;29;19929;-82
2022/11/02 06:33:26;;;;;;;;;;;15.80;71.90;;;;;;4953355;29;20016;-81
2022/11/02 06:35:52;;;;;;;;;;;15.70;71.90;;;;;;4917802;29;20014;-82
2022/11/02 06:38:18;;;;;;;;;;;15.80;71.90;;;;;;4934906;29;19918;-81
2022/11/02 06:40:51;;;;;;;;;;;15.80;71.90;;;;;;4948366;29;19918;-80
2022/11/02 06:43:17;;;;;;;;;;;15.80;71.90;;;;;;4952250;29;20022;-81
2022/11/02 06:45:43;;;;;;;;;;;15.80;71.90;;;;;;4948423;28;20001;-82
2022/11/02 06:48:08;;;;;;;;;;;15.80;71.90;;;;;;4949512;28;19934;-81
2022/11/02 06:50:34;;;;;;;;;;;15.80;71.90;;;;;;4935849;29;19926;-82
2022/11/02 06:52:59;;;;;;;;;;;15.80;71.90;;;;;;4951963;29;19977;-82
2022/11/02 06:55:25;;;;;;;;;;;15.80;71.90;;;;;;4931973;29;20004;-82
2022/11/02 06:57:51;;;;;;;;;;;15.80;71.90;;;;;;4948792;28;20013;-83
2022/11/02 07:00:16;;;;;;;;;;;15.80;71.90;;;;;;4936522;29;19914;-82
2022/11/02 07:02:43;;;;;;;;;;;15.80;71.90;;;;;;4948338;29;20284;-81
2022/11/02 07:05:09;;;;;;;;;;;15.80;71.90;;;;;;4945515;29;19911;-82
2022/11/02 07:07:34;;;;;;;;;;;15.80;71.90;;;;;;4953195;29;20713;-82
2022/11/02 07:10:00;;;;;;;;;;;15.80;71.90;;;;;;4950426;29;19926;-82
2022/11/02 07:12:25;;;;;;;;;;;15.80;71.90;;;;;;4953630;28;20017;-82
2022/11/02 07:14:51;;;;;;;;;;;15.80;71.90;;;;;;4951325;29;19919;-82
2022/11/02 07:17:17;;;;;;;;;;;15.70;71.90;;;;;;4936078;28;20346;-81
2022/11/02 07:19:42;;;;;;;;;;;15.70;71.80;;;;;;4951701;28;19921;-83
2022/11/02 07:22:09;;;;;;;;;;;15.70;71.80;;;;;;4951390;29;19919;-82
2022/11/02 07:24:34;;;;;;;;;;;15.70;71.90;;;;;;4953640;29;19970;-82
2022/11/02 07:27:00;;;;;;;;;;;15.70;71.90;;;;;;4960435;28;20025;-83
2022/11/02 07:29:25;;;;;;;;;;;15.70;71.90;;;;;;4951213;29;20544;-82
2022/11/02 07:31:51;;;;;;;;;;;15.70;71.90;;;;;;4936846;29;20017;-82
2022/11/02 07:34:17;;;;;;;;;;;15.70;71.90;;;;;;4935158;29;19919;-82
2022/11/02 07:36:42;;;;;;;;;;;15.70;71.90;;;;;;4945012;29;20016;-83
2022/11/02 07:39:08;;;;;;;;;;;15.70;71.90;;;;;;4936000;29;19926;-82
2022/11/02 07:41:34;;;;;;;;;;;15.70;71.90;;;;;;4935068;29;20367;-82
2022/11/02 07:44:00;;;;;;;;;;;15.70;71.90;;;;;;4950970;29;19915;-82
2022/11/02 07:46:32;;;;;;;;;;;15.70;71.90;;;;;;4948811;28;20259;-83
2022/11/02 07:48:57;;;;;;;;;;;15.60;71.80;;;;;;4948250;28;20001;-82
2022/11/02 07:51:23;;;;;;;;;;;15.70;71.90;;;;;;4951788;28;20022;-82
2022/11/02 07:53:49;;;;;;;;;;;15.60;71.80;;;;;;4936119;29;20387;-81
2022/11/02 07:56:14;;;;;;;;;;;15.60;71.90;;;;;;4945292;29;20323;-82
2022/11/02 07:58:40;;;;;;;;;;;15.60;71.80;;;;;;4952025;28;19944;-82
2022/11/02 08:01:06;;;;;;;;;;;15.60;71.80;;;;;;4950360;28;19930;-81
2022/11/02 08:03:31;;;;;;;;;;;15.70;71.90;;;;;;4945303;28;20386;-81
2022/11/02 08:05:59;;;;;;;;;;;15.60;71.80;;;;;;4950813;29;20002;-81
2022/11/02 08:08:25;;;;;;;;;;;15.70;71.90;;;;;;4942374;28;20359;-82
2022/11/02 08:10:51;;;;;;;;;;;15.60;71.80;;;;;;4949708;29;19964;-82
2022/11/02 08:13:18;;;;;;;;;;;15.60;71.90;;;;;;4949925;29;19922;-81
2022/11/02 08:15:44;;;;;;;;;;;15.70;71.90;;;;;;4951256;28;19914;-82
2022/11/02 08:18:13;;;;;;;;;;;15.60;71.80;;;;;;4952525;29;19925;-82
2022/11/02 08:20:39;;;;;;;;;;;15.60;71.80;;;;;;4941756;29;19968;-82
2022/11/02 08:23:06;;;;;;;;;;;15.70;71.90;;;;;;4946231;29;19921;-82
2022/11/02 08:25:32;;;;;;;;;;;15.70;71.90;;;;;;4952996;28;20324;-81
2022/11/02 08:27:59;;;;;;;;;;;15.70;71.90;;;;;;4947760;29;19915;-82
2022/11/02 08:30:25;;;;;;;;;;;15.60;71.90;;;;;;4952450;28;20021;-83
2022/11/02 08:32:51;;;;;;;;;;;15.70;71.90;;;;;;4955174;29;19927;-83
2022/11/02 08:35:16;;;;;;;;;;;15.70;71.80;;;;;;4954006;29;20411;-82
2022/11/02 08:37:42;;;;;;;;;;;15.70;71.90;;;;;;4924476;29;20264;-82
2022/11/02 08:40:08;;;;;;;;;;;15.70;71.80;;;;;;4954118;28;19919;-82
2022/11/02 08:42:33;;;;;;;;;;;15.70;71.90;;;;;;4919971;29;20403;-81
2022/11/02 08:44:59;;;;;;;;;;;15.70;71.80;;;;;;4954662;28;19917;-83
2022/11/02 08:47:25;;;;;;;;;;;15.70;71.90;;;;;;4936345;29;20261;-83
2022/11/02 08:49:50;;;;;;;;;;;15.70;71.90;;;;;;4951934;29;20011;-80
2022/11/02 08:52:16;;;;;;;;;;;15.80;71.90;;;;;;4939721;29;19926;-82
2022/11/02 08:54:42;;;;;;;;;;;15.80;71.90;;;;;;4954367;29;19957;-82
2022/11/02 08:57:08;;;;;;;;;;;15.80;71.90;;;;;;4939893;29;19966;-83
2022/11/02 08:59:33;;;;;;;;;;;15.80;71.90;;;;;;4948376;29;19920;-82
2022/11/02 09:01:59;;;;;;;;;;;15.80;71.90;;;;;;4954736;29;20588;-83
2022/11/02 09:04:25;;;;;;;;;;;15.80;71.80;;;;;;4954919;29;19965;-82
2022/11/02 09:06:50;;;;;;;;;;;15.90;71.90;;;;;;4949284;29;20300;-82
2022/11/02 09:09:16;;;;;;;;;;;15.90;71.90;;;;;;4955898;28;19921;-82
2022/11/02 09:11:42;;;;;;;;;;;15.90;71.90;;;;;;4955898;29;20267;-83
2022/11/02 09:14:07;;;;;;;;;;;15.90;71.80;;;;;;4953979;29;19926;-82
2022/11/02 09:16:33;;;;;;;;;;;15.90;71.80;;;;;;4952842;28;19910;-82
2022/11/02 09:18:59;;;;;;;;;;;15.90;71.80;;;;;;4932237;29;19958;-82
2022/11/02 09:21:24;;;;;;;;;;;15.90;71.80;;;;;;4929971;29;20272;-82
2022/11/02 09:23:50;;;;;;;;;;;15.90;71.80;;;;;;4955713;29;20021;-81
2022/11/02 09:26:16;;;;;;;;;;;16.00;71.80;;;;;;4923504;29;20438;-81
2022/11/02 09:28:41;;;;;;;;;;;16.00;71.80;;;;;;4955350;29;20393;-82
2022/11/02 09:31:07;;;;;;;;;;;16.00;71.80;;;;;;4937920;29;20434;-83
2022/11/02 09:33:34;;;;;;;;;;;16.00;71.70;;;;;;4939157;29;19930;-83
2022/11/02 09:36:02;;;;;;;;;;;16.00;71.70;;;;;;4952560;28;19915;-83
2022/11/02 09:38:27;;;;;;;;;;;16.10;71.70;;;;;;4954405;29;19960;-83
2022/11/02 09:41:11;;;;;;;;;;;16.10;71.70;;;;;;4952109;28;19961;-84
2022/11/02 09:43:43;;;;;;;;;;;16.10;71.70;;;;;;4950883;29;19941;-82
2022/11/02 09:46:12;;;;;;;;;;;16.10;71.70;;;;;;4953567;29;20279;-82
2022/11/02 09:48:43;;;;;;;;;;;16.10;71.70;;;;;;4948927;29;19969;-81
2022/11/02 09:51:27;;;;;;;;;;;16.20;71.70;;;;;;4947051;28;19921;-82
2022/11/02 09:54:05;;;;;;;;;;;16.20;71.70;;;;;;4953690;29;19929;-81
2022/11/02 09:56:31;;;;;;;;;;;16.20;71.70;;;;;;4951574;28;19915;-83
2022/11/02 09:59:00;;;;;;;;;;;16.20;71.70;;;;;;4953185;29;19940;-83
2022/11/02 10:01:37;;;;;;;;;;;16.20;71.80;;;;;;4953340;28;20390;-82
2022/11/02 10:04:06;;;;;;;;;;;16.20;71.80;;;;;;4951986;29;19921;-83
2022/11/02 10:06:34;;;;;;;;;;;16.30;71.80;;;;;;4953916;28;19911;-84
2022/11/02 10:09:17;;;;;;;;;;;16.30;71.80;;;;;;4954212;29;19915;-82
2022/11/02 10:12:00;;;;;;;;;;;16.30;71.90;;;;;;4956662;28;19926;-82
2022/11/02 10:14:28;;;;;;;;;;;16.30;71.90;;;;;;4934611;29;20200;-84
2022/11/02 10:16:59;;;;;;;;;;;16.30;71.90;;;;;;4949887;29;20387;-83
2022/11/02 10:19:25;;;;;;;;;;;16.30;71.90;;;;;;4952178;28;19990;-85
2022/11/02 10:21:53;;;;;;;;;;;16.30;71.90;;;;;;4949067;29;19964;-84
2022/11/02 10:24:39;;;;;;;;;;;16.30;71.90;;;;;;4953062;29;20364;-83
2022/11/02 10:27:11;;;;;;;;;;;16.40;72.00;;;;;;4968449;28;19926;-84
2022/11/02 10:29:48;;;;;;;;;;;16.40;72.00;;;;;;4949103;28;19915;-83
2022/11/02 10:32:15;;;;;;;;;;;16.40;72.00;;;;;;4937358;29;20021;-83
2022/11/02 10:34:41;;;;;;;;;;;16.40;72.10;;;;;;4937709;29;19918;-83
2022/11/02 10:37:18;;;;;;;;;;;16.40;72.10;;;;;;4882802;28;1918536;-83
2022/11/02 10:39:55;;;;;;;;;;;16.40;72.10;;;;;;4952407;28;19914;-83
2022/11/02 10:42:21;;;;;;;;;;;16.40;72.10;;;;;;4953379;29;19915;-84
2022/11/02 10:44:59;;;;;;;;;;;16.40;72.10;;;;;;4953991;29;20284;-84
2022/11/02 10:47:26;;;;;;;;;;;16.40;72.10;;;;;;4953978;28;19945;-85
2022/11/02 10:50:10;;;;;;;;;;;16.50;72.20;;;;;;4953158;28;19972;-84
2022/11/02 10:52:37;;;;;;;;;;;16.50;72.20;;;;;;4950675;28;19981;-83
2022/11/02 10:55:03;;;;;;;;;;;16.50;72.20;;;;;;4935236;29;19929;-84
2022/11/02 10:57:31;;;;;;;;;;;16.50;72.20;;;;;;4967752;28;19921;-84
2022/11/02 11:00:15;;;;;;;;;;;16.50;72.20;;;;;;4946948;29;20001;-84
2022/11/02 11:02:41;;;;;;;;;;;16.50;72.20;;;;;;4937854;29;19915;-85
2022/11/02 11:05:15;;;;;;;;;;;16.50;72.20;;;;;;4935511;29;20268;-85
2022/11/02 11:07:43;;;;;;;;;;;16.50;72.20;;;;;;4950652;28;20364;-84
2022/11/02 11:10:13;;;;;;;;;;;16.50;72.20;;;;;;4947231;29;19911;-84
2022/11/02 11:12:41;;;;;;;;;;;16.50;72.20;;;;;;4953997;29;19969;-84
2022/11/02 11:15:18;;;;;;;;;;;16.50;72.20;;;;;;4951179;29;19981;-85
2022/11/02 11:17:44;;;;;;;;;;;16.50;72.20;;;;;;4950335;28;20374;-85
2022/11/02 11:20:29;;;;;;;;;;;16.50;72.20;;;;;;4936740;29;19976;-84
2022/11/02 11:23:14;;;;;;;;;;;16.60;72.20;;;;;;4931900;29;19925;-84
2022/11/02 11:25:40;;;;;;;;;;;16.60;72.20;;;;;;4951963;29;19915;-84
2022/11/02 11:28:20;;;;;;;;;;;16.60;72.20;;;;;;4937863;29;20417;-84
2022/11/02 11:30:47;;;;;;;;;;;16.60;72.20;;;;;;4948190;28;19921;-82
2022/11/02 11:33:15;;;;;;;;;;;16.60;72.20;;;;;;4943120;29;19958;-81
2022/11/02 11:35:46;;;;;;;;;;;16.60;72.20;;;;;;4953155;28;19918;-82
2022/11/02 11:38:16;;;;;;;;;;;16.70;72.30;;;;;;4941114;28;20368;-81
2022/11/02 11:40:43;;;;;;;;;;;16.70;72.30;;;;;;4950882;29;19915;-83
2022/11/02 11:43:11;;;;;;;;;;;16.70;72.20;;;;;;4953012;28;19911;-83
2022/11/02 11:45:37;;;;;;;;;;;16.70;72.20;;;;;;4950076;29;19922;-82
2022/11/02 11:48:06;;;;;;;;;;;16.70;72.20;;;;;;4937019;29;20249;-82
2022/11/02 11:50:32;;;;;;;;;;;16.70;72.20;;;;;;4952848;28;19993;-83
2022/11/02 11:53:27;;;;;;;;;;;16.80;72.20;;;;;;4951478;29;19977;-84
2022/11/02 11:55:54;;;;;;;;;;;16.80;72.20;;;;;;4949528;28;19970;-83
2022/11/02 11:58:28;;;;;;;;;;;16.80;72.20;;;;;;4949819;28;19914;-84
2022/11/02 12:01:05;;;;;;;;;;;16.80;72.20;;;;;;4950634;29;19911;-84
2022/11/02 12:03:31;;;;;;;;;;;16.80;72.20;;;;;;4951200;28;19925;-82
2022/11/02 12:06:01;;;;;;;;;;;16.80;72.20;;;;;;4951835;29;20284;-84
2022/11/02 12:08:36;;;;;;;;;;;16.80;72.20;;;;;;4951386;28;19960;-83
2022/11/02 12:11:20;;;;;;;;;;;16.80;72.20;;;;;;4950332;29;20407;-81
2022/11/02 12:13:51;;;;;;;;;;;16.90;72.20;;;;;;4952556;28;19950;-83
2022/11/02 12:16:36;;;;;;;;;;;16.90;72.20;;;;;;4932562;29;20311;-83
2022/11/02 12:19:10;;;;;;;;;;;16.90;72.20;;;;;;4947790;28;19914;-82
2022/11/02 12:21:55;;;;;;;;;;;16.90;72.20;;;;;;4951478;28;19914;-82
2022/11/02 12:24:23;;;;;;;;;;;16.90;72.20;;;;;;4950339;28;19914;-83
2022/11/02 12:27:08;;;;;;;;;;;17.00;72.20;;;;;;4950172;28;19911;-84
2022/11/02 12:29:33;;;;;;;;;;;17.00;72.20;;;;;;4966059;28;19910;-83
2022/11/02 12:32:09;;;;;;;;;;;17.00;72.20;;;;;;4952059;29;19919;-83
2022/11/02 12:34:47;;;;;;;;;;;17.00;72.20;;;;;;4950593;28;20380;-81
2022/11/02 12:37:16;;;;;;;;;;;17.00;72.20;;;;;;4948831;28;19945;-83
2022/11/02 12:40:01;;;;;;;;;;;17.10;72.30;;;;;;4949446;29;19919;-83
2022/11/02 12:42:46;;;;;;;;;;;17.10;72.20;;;;;;4949740;29;20438;-85
2022/11/02 12:45:18;;;;;;;;;;;17.10;72.20;;;;;;4950524;29;19914;-85
2022/11/02 12:47:44;;;;;;;;;;;17.10;72.20;;;;;;4949859;29;19921;-85
2022/11/02 12:50:19;;;;;;;;;;;17.10;72.20;;;;;;4953057;29;19914;-85
2022/11/02 12:52:53;;;;;;;;;;;17.10;72.20;;;;;;4948238;29;19922;-85
2022/11/02 12:55:24;;;;;;;;;;;17.10;72.20;;;;;;4951277;29;19919;-85
2022/11/02 12:57:53;;;;;;;;;;;17.10;72.30;;;;;;4951113;29;19927;-84
2022/11/02 13:00:20;;;;;;;;;;;17.20;72.30;;;;;;4937010;28;19918;-84
2022/11/02 13:03:10;;;;;;;;;;;17.20;72.30;;;;;;4952244;28;19915;-84
2022/11/02 13:05:38;;;;;;;;;;;17.20;72.30;;;;;;4950725;28;19969;-82
2022/11/02 13:08:15;;;;;;;;;;;17.20;72.40;;;;;;4949707;29;19938;-83
2022/11/02 13:10:46;;;;;;;;;;;17.20;72.30;;;;;;4951196;28;20371;-83
2022/11/02 13:13:23;;;;;;;;;;;17.30;72.30;;;;;;4951302;29;19925;-83
2022/11/02 13:15:49;;;;;;;;;;;17.30;72.30;;;;;;4951021;28;19925;-84
2022/11/02 13:18:27;;;;;;;;;;;17.30;72.30;;;;;;4954830;29;20009;-83
2022/11/02 13:20:57;;;;;;;;;;;17.30;72.30;;;;;;4955982;29;19918;-83
2022/11/02 13:23:32;;;;;;;;;;;17.30;72.30;;;;;;4949735;28;19922;-82
2022/11/02 13:26:00;;;;;;;;;;;17.30;72.20;;;;;;4942390;29;20058;-83
2022/11/02 13:28:42;;;;;;;;;;;17.30;72.20;;;;;;4946372;29;19910;-83
2022/11/02 13:31:13;;;;;;;;;;;17.30;72.10;;;;;;4951527;28;19915;-84
2022/11/02 13:33:42;;;;;;;;;;;17.30;72.10;;;;;;4934143;28;19915;-84
2022/11/02 13:36:08;;;;;;;;;;;17.30;72.10;;;;;;4944071;28;20380;-83
2022/11/02 13:38:39;;;;;;;;;;;17.30;72.10;;;;;;4954031;28;19954;-84
2022/11/02 13:41:32;;;;;;;;;;;17.40;72.10;;;;;;4951838;28;19914;-83
2022/11/02 13:44:16;;;;;;;;;;;17.40;72.10;;;;;;4954610;28;19932;-84
2022/11/02 13:46:41;;;;;;;;;;;17.50;72.10;;;;;;4967657;28;19945;-84
2022/11/02 13:49:14;;;;;;;;;;;17.50;72.10;;;;;;4953973;28;20378;-83
2022/11/02 13:51:55;;;;;;;;;;;17.50;72.00;;;;;;4946611;29;19966;-83
2022/11/02 13:54:29;;;;;;;;;;;17.50;72.00;;;;;;4936891;29;19926;-83
2022/11/02 13:56:56;;;;;;;;;;;17.50;72.00;;;;;;4953999;28;19945;-83
2022/11/02 13:59:27;;;;;;;;;;;17.60;72.00;;;;;;4937062;28;20388;-84
2022/11/02 14:01:53;;;;;;;;;;;17.60;72.00;;;;;;4955160;28;19914;-83
2022/11/02 14:04:19;;;;;;;;;;;17.60;72.00;;;;;;4939005;28;19965;-83
2022/11/02 14:06:56;;;;;;;;;;;17.60;72.00;;;;;;4951120;28;19957;-83
2022/11/02 14:09:27;;;;;;;;;;;17.60;72.00;;;;;;4945055;29;20260;-83
2022/11/02 14:12:10;;;;;;;;;;;17.60;72.00;;;;;;4949466;28;19997;-83
2022/11/02 14:14:35;;;;;;;;;;;17.60;72.00;;;;;;4952712;28;19923;-84
2022/11/02 14:17:10;;;;;;;;;;;17.60;72.00;;;;;;4936593;29;20279;-83
2022/11/02 14:19:55;;;;;;;;;;;17.70;72.00;;;;;;4954235;28;20430;-83
2022/11/02 14:22:21;;;;;;;;;;;17.60;71.90;;;;;;4953844;29;19919;-83
2022/11/02 14:24:52;;;;;;;;;;;17.70;72.00;;;;;;4953446;28;19966;-83
2022/11/02 14:27:20;;;;;;;;;;;17.60;71.90;;;;;;4946054;28;19961;-83
2022/11/02 14:29:45;;;;;;;;;;;17.60;71.90;;;;;;4951911;28;19911;-84
2022/11/02 14:32:20;;;;;;;;;;;17.70;72.00;;;;;;4947540;28;19914;-82
2022/11/02 14:34:46;;;;;;;;;;;17.70;72.00;;;;;;4952508;28;20323;-83
2022/11/02 14:37:11;;;;;;;;;;;17.70;71.90;;;;;;4952023;28;19910;-82
2022/11/02 14:39:37;;;;;;;;;;;17.70;71.90;;;;;;4951389;28;19915;-83
2022/11/02 14:42:18;;;;;;;;;;;17.70;71.90;;;;;;4954084;28;19914;-83
2022/11/02 14:44:58;;;;;;;;;;;17.70;71.90;;;;;;4949027;28;19915;-84